sensor_id;sensor_type;location;lat;lon;timestamp;P1;durP1;ratioP1;P2;durP2;ratioP2
40623;SDS011;26325;48.594;11.650;2022-12-07T00:01:28;8.10;;;7.35;;
40623;SDS011;26325;48.594;11.650;2022-12-07T00:03:56;8.45;;;7.65;;
40623;SDS011;26325;48.594;11.650;2022-12-07T00:06:26;8.73;;;7.82;;
40623;SDS011;26325;48.594;11.650;2022-12-07T00:08:54;8.25;;;7.45;;
40623;SDS011;26325;48.594;11.650;2022-12-07T00:11:21;8.63;;;7.72;;
40623;SDS011;26325;48.594;11.650;2022-12-07T00:13:52;7.60;;;6.93;;
40623;SDS011;26325;48.594;11.650;2022-12-07T00:16:20;8.65;;;7.85;;
40623;SDS011;26325;48.594;11.650;2022-12-07T00:18:47;9.02;;;8.13;;
40623;SDS011;26325;48.594;11.650;2022-12-07T00:24:04;9.25;;;8.25;;
40623;SDS011;26325;48.594;11.650;2022-12-07T00:26:32;8.70;;;7.60;;
40623;SDS011;26325;48.594;11.650;2022-12-07T00:29:02;7.93;;;7.18;;
40623;SDS011;26325;48.594;11.650;2022-12-07T00:31:32;7.95;;;7.25;;
40623;SDS011;26325;48.594;11.650;2022-12-07T00:34:00;8.65;;;7.85;;
40623;SDS011;26325;48.594;11.650;2022-12-07T00:36:26;7.70;;;7.00;;
40623;SDS011;26325;48.594;11.650;2022-12-07T00:38:51;8.07;;;7.28;;
40623;SDS011;26325;48.594;11.650;2022-12-07T00:41:22;8.95;;;8.05;;
40623;SDS011;26325;48.594;11.650;2022-12-07T00:43:49;8.63;;;7.82;;
40623;SDS011;26325;48.594;11.650;2022-12-07T00:46:16;8.50;;;7.60;;
40623;SDS011;26325;48.594;11.650;2022-12-07T00:48:43;8.45;;;7.65;;
40623;SDS011;26325;48.594;11.650;2022-12-07T00:51:13;9.00;;;8.10;;
40623;SDS011;26325;48.594;11.650;2022-12-07T00:53:43;8.82;;;7.55;;
40623;SDS011;26325;48.594;11.650;2022-12-07T00:56:22;9.15;;;8.27;;
40623;SDS011;26325;48.594;11.650;2022-12-07T00:58:55;8.98;;;8.07;;
40623;SDS011;26325;48.594;11.650;2022-12-07T01:01:27;8.32;;;7.53;;
40623;SDS011;26325;48.594;11.650;2022-12-07T01:03:57;8.68;;;7.80;;
40623;SDS011;26325;48.594;11.650;2022-12-07T01:06:24;8.55;;;7.75;;
40623;SDS011;26325;48.594;11.650;2022-12-07T01:08:50;9.13;;;8.23;;
40623;SDS011;26325;48.594;11.650;2022-12-07T01:11:24;8.52;;;7.72;;
40623;SDS011;26325;48.594;11.650;2022-12-07T01:13:53;8.35;;;7.55;;
40623;SDS011;26325;48.594;11.650;2022-12-07T01:16:21;8.90;;;8.10;;
40623;SDS011;26325;48.594;11.650;2022-12-07T01:18:50;8.13;;;7.32;;
40623;SDS011;26325;48.594;11.650;2022-12-07T01:21:25;9.35;;;8.45;;
40623;SDS011;26325;48.594;11.650;2022-12-07T01:23:53;8.40;;;7.60;;
40623;SDS011;26325;48.594;11.650;2022-12-07T01:26:24;8.68;;;7.53;;
40623;SDS011;26325;48.594;11.650;2022-12-07T01:28:50;8.43;;;7.63;;
40623;SDS011;26325;48.594;11.650;2022-12-07T01:31:19;8.57;;;7.78;;
40623;SDS011;26325;48.594;11.650;2022-12-07T01:33:47;8.73;;;7.85;;
40623;SDS011;26325;48.594;11.650;2022-12-07T01:38:46;8.20;;;7.40;;
40623;SDS011;26325;48.594;11.650;2022-12-07T01:41:13;8.20;;;7.40;;
40623;SDS011;26325;48.594;11.650;2022-12-07T01:46:35;8.32;;;7.53;;
40623;SDS011;26325;48.594;11.650;2022-12-07T01:49:01;8.73;;;7.93;;
40623;SDS011;26325;48.594;11.650;2022-12-07T01:51:35;8.57;;;7.65;;
40623;SDS011;26325;48.594;11.650;2022-12-07T01:54:05;8.68;;;7.88;;
40623;SDS011;26325;48.594;11.650;2022-12-07T01:56:31;9.95;;;7.30;;
40623;SDS011;26325;48.594;11.650;2022-12-07T01:58:57;8.43;;;7.47;;
40623;SDS011;26325;48.594;11.650;2022-12-07T02:01:27;8.82;;;7.93;;
40623;SDS011;26325;48.594;11.650;2022-12-07T02:03:53;8.00;;;7.25;;
40623;SDS011;26325;48.594;11.650;2022-12-07T02:06:21;7.90;;;7.18;;
40623;SDS011;26325;48.594;11.650;2022-12-07T02:08:48;9.30;;;7.88;;
40623;SDS011;26325;48.594;11.650;2022-12-07T02:11:14;8.60;;;7.30;;
40623;SDS011;26325;48.594;11.650;2022-12-07T02:13:46;8.00;;;7.22;;
40623;SDS011;26325;48.594;11.650;2022-12-07T02:27:50;8.55;;;7.75;;
40623;SDS011;26325;48.594;11.650;2022-12-07T02:30:22;9.20;;;8.18;;
40623;SDS011;26325;48.594;11.650;2022-12-07T02:33:07;8.45;;;7.50;;
40623;SDS011;26325;48.594;11.650;2022-12-07T02:38:50;8.60;;;7.80;;
40623;SDS011;26325;48.594;11.650;2022-12-07T02:41:29;8.88;;;8.07;;
40623;SDS011;26325;48.594;11.650;2022-12-07T02:44:03;9.57;;;8.47;;
40623;SDS011;26325;48.594;11.650;2022-12-07T02:46:36;9.00;;;8.10;;
40623;SDS011;26325;48.594;11.650;2022-12-07T02:49:05;8.82;;;7.93;;
40623;SDS011;26325;48.594;11.650;2022-12-07T02:51:33;8.32;;;7.63;;
40623;SDS011;26325;48.594;11.650;2022-12-07T02:53:59;9.20;;;8.30;;
40623;SDS011;26325;48.594;11.650;2022-12-07T02:56:49;9.10;;;8.30;;
40623;SDS011;26325;48.594;11.650;2022-12-07T03:08:06;10.13;;;8.85;;
40623;SDS011;26325;48.594;11.650;2022-12-07T03:16:14;9.40;;;8.43;;
40623;SDS011;26325;48.594;11.650;2022-12-07T03:18:49;10.88;;;8.85;;
40623;SDS011;26325;48.594;11.650;2022-12-07T03:21:27;9.82;;;8.82;;
40623;SDS011;26325;48.594;11.650;2022-12-07T03:24:03;9.82;;;8.82;;
40623;SDS011;26325;48.594;11.650;2022-12-07T03:26:38;9.25;;;8.35;;
40623;SDS011;26325;48.594;11.650;2022-12-07T03:29:10;9.52;;;8.52;;
40623;SDS011;26325;48.594;11.650;2022-12-07T03:31:41;9.57;;;8.68;;
40623;SDS011;26325;48.594;11.650;2022-12-07T03:34:14;10.32;;;9.30;;
40623;SDS011;26325;48.594;11.650;2022-12-07T03:37:03;10.02;;;9.02;;
40623;SDS011;26325;48.594;11.650;2022-12-07T03:39:39;10.23;;;9.20;;
40623;SDS011;26325;48.594;11.650;2022-12-07T03:42:10;9.68;;;8.73;;
40623;SDS011;26325;48.594;11.650;2022-12-07T03:44:36;10.75;;;9.35;;
40623;SDS011;26325;48.594;11.650;2022-12-07T03:47:16;10.65;;;9.55;;
40623;SDS011;26325;48.594;11.650;2022-12-07T03:52:39;11.32;;;10.13;;
40623;SDS011;26325;48.594;11.650;2022-12-07T03:55:16;11.20;;;10.02;;
40623;SDS011;26325;48.594;11.650;2022-12-07T03:57:43;11.25;;;10.13;;
40623;SDS011;26325;48.594;11.650;2022-12-07T04:00:11;13.90;;;11.13;;
40623;SDS011;26325;48.594;11.650;2022-12-07T04:02:39;12.38;;;10.80;;
40623;SDS011;26325;48.594;11.650;2022-12-07T04:05:05;11.15;;;10.05;;
40623;SDS011;26325;48.594;11.650;2022-12-07T04:07:34;11.18;;;9.98;;
40623;SDS011;26325;48.594;11.650;2022-12-07T04:09:59;12.13;;;10.93;;
40623;SDS011;26325;48.594;11.650;2022-12-07T04:12:27;11.45;;;10.35;;
40623;SDS011;26325;48.594;11.650;2022-12-07T04:14:53;12.65;;;11.02;;
40623;SDS011;26325;48.594;11.650;2022-12-07T04:17:18;11.40;;;10.23;;
40623;SDS011;26325;48.594;11.650;2022-12-07T04:19:44;10.93;;;9.82;;
40623;SDS011;26325;48.594;11.650;2022-12-07T04:22:12;10.48;;;9.43;;
40623;SDS011;26325;48.594;11.650;2022-12-07T04:24:38;11.73;;;10.07;;
40623;SDS011;26325;48.594;11.650;2022-12-07T04:27:06;11.00;;;9.90;;
40623;SDS011;26325;48.594;11.650;2022-12-07T04:29:31;11.52;;;10.32;;
40623;SDS011;26325;48.594;11.650;2022-12-07T04:31:57;12.15;;;10.85;;
40623;SDS011;26325;48.594;11.650;2022-12-07T04:34:22;11.00;;;9.90;;
40623;SDS011;26325;48.594;11.650;2022-12-07T04:36:48;12.05;;;10.85;;
40623;SDS011;26325;48.594;11.650;2022-12-07T04:39:28;11.48;;;10.27;;
40623;SDS011;26325;48.594;11.650;2022-12-07T04:41:55;11.88;;;10.68;;
40623;SDS011;26325;48.594;11.650;2022-12-07T04:44:22;11.20;;;10.10;;
40623;SDS011;26325;48.594;11.650;2022-12-07T04:46:50;11.43;;;10.32;;
40623;SDS011;26325;48.594;11.650;2022-12-07T04:49:16;10.20;;;9.20;;
40623;SDS011;26325;48.594;11.650;2022-12-07T04:51:43;10.88;;;9.77;;
40623;SDS011;26325;48.594;11.650;2022-12-07T04:54:10;11.43;;;10.25;;
40623;SDS011;26325;48.594;11.650;2022-12-07T04:56:36;10.57;;;9.57;;
40623;SDS011;26325;48.594;11.650;2022-12-07T04:59:02;11.50;;;10.40;;
40623;SDS011;26325;48.594;11.650;2022-12-07T05:01:28;11.38;;;10.27;;
40623;SDS011;26325;48.594;11.650;2022-12-07T05:03:54;11.40;;;10.30;;
40623;SDS011;26325;48.594;11.650;2022-12-07T05:06:20;11.65;;;10.45;;
40623;SDS011;26325;48.594;11.650;2022-12-07T05:08:45;11.77;;;10.57;;
40623;SDS011;26325;48.594;11.650;2022-12-07T05:11:11;12.00;;;10.77;;
40623;SDS011;26325;48.594;11.650;2022-12-07T05:13:56;12.02;;;10.82;;
40623;SDS011;26325;48.594;11.650;2022-12-07T05:16:22;10.93;;;9.82;;
40623;SDS011;26325;48.594;11.650;2022-12-07T05:18:47;12.73;;;11.38;;
40623;SDS011;26325;48.594;11.650;2022-12-07T05:21:13;10.77;;;9.68;;
40623;SDS011;26325;48.594;11.650;2022-12-07T05:23:38;11.73;;;10.55;;
40623;SDS011;26325;48.594;11.650;2022-12-07T05:26:04;11.77;;;10.57;;
40623;SDS011;26325;48.594;11.650;2022-12-07T05:28:32;11.10;;;9.95;;
40623;SDS011;26325;48.594;11.650;2022-12-07T05:30:58;11.13;;;10.02;;
40623;SDS011;26325;48.594;11.650;2022-12-07T05:33:23;10.80;;;9.75;;
40623;SDS011;26325;48.594;11.650;2022-12-07T05:35:49;11.73;;;10.38;;
40623;SDS011;26325;48.594;11.650;2022-12-07T05:38:14;12.10;;;10.95;;
40623;SDS011;26325;48.594;11.650;2022-12-07T05:40:40;11.93;;;10.40;;
40623;SDS011;26325;48.594;11.650;2022-12-07T05:43:05;12.05;;;10.27;;
40623;SDS011;26325;48.594;11.650;2022-12-07T05:45:31;12.80;;;11.10;;
40623;SDS011;26325;48.594;11.650;2022-12-07T05:47:56;12.32;;;11.05;;
40623;SDS011;26325;48.594;11.650;2022-12-07T05:50:22;12.90;;;10.90;;
40623;SDS011;26325;48.594;11.650;2022-12-07T05:52:47;11.65;;;10.45;;
40623;SDS011;26325;48.594;11.650;2022-12-07T05:55:15;12.48;;;11.18;;
40623;SDS011;26325;48.594;11.650;2022-12-07T05:57:41;12.00;;;10.80;;
40623;SDS011;26325;48.594;11.650;2022-12-07T06:00:26;12.88;;;11.50;;
40623;SDS011;26325;48.594;11.650;2022-12-07T06:02:54;12.60;;;11.30;;
40623;SDS011;26325;48.594;11.650;2022-12-07T06:05:19;11.93;;;10.73;;
40623;SDS011;26325;48.594;11.650;2022-12-07T06:07:45;12.50;;;11.07;;
40623;SDS011;26325;48.594;11.650;2022-12-07T06:10:11;12.23;;;10.93;;
40623;SDS011;26325;48.594;11.650;2022-12-07T06:12:36;12.82;;;11.48;;
40623;SDS011;26325;48.594;11.650;2022-12-07T06:15:07;12.38;;;11.05;;
40623;SDS011;26325;48.594;11.650;2022-12-07T06:17:36;11.70;;;10.50;;
40623;SDS011;26325;48.594;11.650;2022-12-07T06:20:05;13.15;;;11.75;;
40623;SDS011;26325;48.594;11.650;2022-12-07T06:22:34;12.25;;;10.95;;
40623;SDS011;26325;48.594;11.650;2022-12-07T06:24:59;11.20;;;10.00;;
40623;SDS011;26325;48.594;11.650;2022-12-07T06:27:26;11.35;;;9.52;;
40623;SDS011;26325;48.594;11.650;2022-12-07T06:29:52;11.77;;;9.95;;
40623;SDS011;26325;48.594;11.650;2022-12-07T06:32:20;11.75;;;9.82;;
40623;SDS011;26325;48.594;11.650;2022-12-07T06:34:45;10.75;;;9.65;;
40623;SDS011;26325;48.594;11.650;2022-12-07T06:37:12;12.57;;;10.32;;
40623;SDS011;26325;48.594;11.650;2022-12-07T06:39:38;12.65;;;10.18;;
40623;SDS011;26325;48.594;11.650;2022-12-07T06:42:04;11.63;;;10.43;;
40623;SDS011;26325;48.594;11.650;2022-12-07T06:44:29;11.50;;;10.30;;
40623;SDS011;26325;48.594;11.650;2022-12-07T06:46:55;11.43;;;10.23;;
40623;SDS011;26325;48.594;11.650;2022-12-07T06:49:20;12.25;;;10.40;;
40623;SDS011;26325;48.594;11.650;2022-12-07T06:51:46;11.77;;;10.57;;
40623;SDS011;26325;48.594;11.650;2022-12-07T06:54:13;13.30;;;10.98;;
40623;SDS011;26325;48.594;11.650;2022-12-07T06:56:39;12.73;;;10.65;;
40623;SDS011;26325;48.594;11.650;2022-12-07T06:59:06;12.50;;;10.00;;
40623;SDS011;26325;48.594;11.650;2022-12-07T07:01:32;11.65;;;10.27;;
40623;SDS011;26325;48.594;11.650;2022-12-07T07:03:58;13.35;;;10.43;;
40623;SDS011;26325;48.594;11.650;2022-12-07T07:06:25;11.18;;;9.98;;
40623;SDS011;26325;48.594;11.650;2022-12-07T07:08:53;12.15;;;10.85;;
40623;SDS011;26325;48.594;11.650;2022-12-07T07:11:19;12.90;;;11.13;;
40623;SDS011;26325;48.594;11.650;2022-12-07T07:13:46;11.73;;;10.52;;
40623;SDS011;26325;48.594;11.650;2022-12-07T07:16:12;11.52;;;10.27;;
40623;SDS011;26325;48.594;11.650;2022-12-07T07:18:38;12.07;;;9.80;;
40623;SDS011;26325;48.594;11.650;2022-12-07T07:21:04;11.60;;;10.40;;
40623;SDS011;26325;48.594;11.650;2022-12-07T07:23:30;12.35;;;11.07;;
40623;SDS011;26325;48.594;11.650;2022-12-07T07:25:56;10.75;;;9.65;;
40623;SDS011;26325;48.594;11.650;2022-12-07T07:28:21;12.88;;;10.77;;
40623;SDS011;26325;48.594;11.650;2022-12-07T07:30:47;12.07;;;10.65;;
40623;SDS011;26325;48.594;11.650;2022-12-07T07:33:13;12.70;;;11.05;;
40623;SDS011;26325;48.594;11.650;2022-12-07T07:35:38;11.82;;;10.52;;
40623;SDS011;26325;48.594;11.650;2022-12-07T07:38:04;11.77;;;10.25;;
40623;SDS011;26325;48.594;11.650;2022-12-07T07:40:30;12.75;;;11.45;;
40623;SDS011;26325;48.594;11.650;2022-12-07T07:42:57;14.90;;;11.55;;
40623;SDS011;26325;48.594;11.650;2022-12-07T07:45:25;15.88;;;14.18;;
40623;SDS011;26325;48.594;11.650;2022-12-07T07:47:51;13.45;;;12.02;;
40623;SDS011;26325;48.594;11.650;2022-12-07T07:50:17;12.82;;;10.30;;
40623;SDS011;26325;48.594;11.650;2022-12-07T07:52:45;10.80;;;9.70;;
40623;SDS011;26325;48.594;11.650;2022-12-07T07:55:11;13.95;;;12.32;;
40623;SDS011;26325;48.594;11.650;2022-12-07T07:57:38;11.93;;;10.73;;
40623;SDS011;26325;48.594;11.650;2022-12-07T08:00:08;12.57;;;11.07;;
40623;SDS011;26325;48.594;11.650;2022-12-07T08:02:36;13.07;;;11.68;;
40623;SDS011;26325;48.594;11.650;2022-12-07T08:05:01;12.75;;;11.25;;
40623;SDS011;26325;48.594;11.650;2022-12-07T08:07:34;13.48;;;11.23;;
40623;SDS011;26325;48.594;11.650;2022-12-07T08:10:02;13.55;;;12.15;;
40623;SDS011;26325;48.594;11.650;2022-12-07T08:12:28;14.63;;;12.23;;
40623;SDS011;26325;48.594;11.650;2022-12-07T08:14:54;14.93;;;13.32;;
40623;SDS011;26325;48.594;11.650;2022-12-07T08:19:45;16.20;;;13.43;;
40623;SDS011;26325;48.594;11.650;2022-12-07T08:22:11;15.10;;;12.95;;
40623;SDS011;26325;48.594;11.650;2022-12-07T08:27:06;14.90;;;13.50;;
40623;SDS011;26325;48.594;11.650;2022-12-07T08:29:34;11.77;;;10.57;;
40623;SDS011;26325;48.594;11.650;2022-12-07T08:31:59;11.55;;;10.45;;
40623;SDS011;26325;48.594;11.650;2022-12-07T08:34:26;12.38;;;10.27;;
40623;SDS011;26325;48.594;11.650;2022-12-07T08:39:23;10.98;;;9.98;;
40623;SDS011;26325;48.594;11.650;2022-12-07T08:44:21;10.35;;;9.35;;
40623;SDS011;26325;48.594;11.650;2022-12-07T08:50:08;21.25;;;19.45;;
40623;SDS011;26325;48.594;11.650;2022-12-07T08:52:36;24.13;;;22.13;;
40623;SDS011;26325;48.594;11.650;2022-12-07T08:55:03;11.88;;;10.88;;
40623;SDS011;26325;48.594;11.650;2022-12-07T08:57:30;10.50;;;9.60;;
40623;SDS011;26325;48.594;11.650;2022-12-07T08:59:59;10.70;;;9.80;;
40623;SDS011;26325;48.594;11.650;2022-12-07T09:04:50;10.18;;;9.27;;
40623;SDS011;26325;48.594;11.650;2022-12-07T09:09:41;9.70;;;8.80;;
40623;SDS011;26325;48.594;11.650;2022-12-07T09:14:32;10.20;;;9.25;;
40623;SDS011;26325;48.594;11.650;2022-12-07T09:19:35;10.48;;;9.48;;
40623;SDS011;26325;48.594;11.650;2022-12-07T09:22:03;11.00;;;9.90;;
40623;SDS011;26325;48.594;11.650;2022-12-07T09:24:32;12.43;;;11.32;;
40623;SDS011;26325;48.594;11.650;2022-12-07T09:27:00;11.82;;;10.73;;
40623;SDS011;26325;48.594;11.650;2022-12-07T09:29:28;11.93;;;10.73;;
40623;SDS011;26325;48.594;11.650;2022-12-07T09:31:55;11.18;;;10.27;;
40623;SDS011;26325;48.594;11.650;2022-12-07T09:36:47;11.20;;;10.20;;
40623;SDS011;26325;48.594;11.650;2022-12-07T09:41:39;10.75;;;9.75;;
40623;SDS011;26325;48.594;11.650;2022-12-07T09:44:13;10.52;;;9.45;;
40623;SDS011;26325;48.594;11.650;2022-12-07T09:46:43;10.02;;;9.02;;
40623;SDS011;26325;48.594;11.650;2022-12-07T09:49:16;11.27;;;10.27;;
40623;SDS011;26325;48.594;11.650;2022-12-07T09:51:44;11.05;;;10.05;;
40623;SDS011;26325;48.594;11.650;2022-12-07T09:54:15;10.50;;;9.57;;
40623;SDS011;26325;48.594;11.650;2022-12-07T09:56:43;9.73;;;8.85;;
40623;SDS011;26325;48.594;11.650;2022-12-07T09:59:13;10.48;;;9.48;;
40623;SDS011;26325;48.594;11.650;2022-12-07T10:01:46;10.02;;;9.13;;
40623;SDS011;26325;48.594;11.650;2022-12-07T10:06:49;10.50;;;9.50;;
40623;SDS011;26325;48.594;11.650;2022-12-07T10:09:19;10.00;;;9.10;;
40623;SDS011;26325;48.594;11.650;2022-12-07T10:14:30;9.35;;;8.45;;
40623;SDS011;26325;48.594;11.650;2022-12-07T10:16:58;10.05;;;9.05;;
40623;SDS011;26325;48.594;11.650;2022-12-07T10:19:31;9.18;;;8.35;;
40623;SDS011;26325;48.594;11.650;2022-12-07T10:22:15;9.23;;;8.30;;
40623;SDS011;26325;48.594;11.650;2022-12-07T10:24:44;8.90;;;8.00;;
40623;SDS011;26325;48.594;11.650;2022-12-07T10:27:22;8.85;;;7.95;;
40623;SDS011;26325;48.594;11.650;2022-12-07T10:29:54;9.23;;;8.32;;
40623;SDS011;26325;48.594;11.650;2022-12-07T10:34:45;10.40;;;7.38;;
40623;SDS011;26325;48.594;11.650;2022-12-07T10:39:48;7.28;;;6.57;;
40623;SDS011;26325;48.594;11.650;2022-12-07T10:42:24;7.75;;;7.03;;
40623;SDS011;26325;48.594;11.650;2022-12-07T10:59:41;10.98;;;9.60;;
40623;SDS011;26325;48.594;11.650;2022-12-07T11:11:36;9.35;;;7.43;;
40623;SDS011;26325;48.594;11.650;2022-12-07T11:14:25;8.00;;;7.20;;
40623;SDS011;26325;48.594;11.650;2022-12-07T11:17:24;8.07;;;7.28;;
40623;SDS011;26325;48.594;11.650;2022-12-07T11:22:56;9.50;;;7.57;;
40623;SDS011;26325;48.594;11.650;2022-12-07T11:25:35;8.45;;;7.57;;
40623;SDS011;26325;48.594;11.650;2022-12-07T11:28:20;8.23;;;7.43;;
40623;SDS011;26325;48.594;11.650;2022-12-07T11:36:37;8.13;;;7.30;;
40623;SDS011;26325;48.594;11.650;2022-12-07T11:41:50;13.43;;;11.27;;
40623;SDS011;26325;48.594;11.650;2022-12-07T11:47:16;8.15;;;7.30;;
40623;SDS011;26325;48.594;11.650;2022-12-07T11:49:53;7.85;;;6.80;;
40623;SDS011;26325;48.594;11.650;2022-12-07T11:55:06;7.90;;;7.03;;
40623;SDS011;26325;48.594;11.650;2022-12-07T11:57:50;8.48;;;6.63;;
40623;SDS011;26325;48.594;11.650;2022-12-07T12:00:21;6.70;;;6.00;;
40623;SDS011;26325;48.594;11.650;2022-12-07T12:03:00;7.30;;;6.57;;
40623;SDS011;26325;48.594;11.650;2022-12-07T12:05:29;7.13;;;6.40;;
40623;SDS011;26325;48.594;11.650;2022-12-07T12:08:23;6.88;;;6.18;;
40623;SDS011;26325;48.594;11.650;2022-12-07T12:11:19;9.48;;;6.80;;
40623;SDS011;26325;48.594;11.650;2022-12-07T12:14:41;7.57;;;6.15;;
40623;SDS011;26325;48.594;11.650;2022-12-07T12:20:25;7.63;;;6.88;;
40623;SDS011;26325;48.594;11.650;2022-12-07T12:23:16;8.13;;;6.22;;
40623;SDS011;26325;48.594;11.650;2022-12-07T12:25:56;7.80;;;6.57;;
40623;SDS011;26325;48.594;11.650;2022-12-07T12:28:32;7.85;;;6.20;;
40623;SDS011;26325;48.594;11.650;2022-12-07T12:33:57;8.73;;;6.80;;
40623;SDS011;26325;48.594;11.650;2022-12-07T12:44:03;7.72;;;6.75;;
40623;SDS011;26325;48.594;11.650;2022-12-07T12:46:59;7.10;;;6.40;;
40623;SDS011;26325;48.594;11.650;2022-12-07T12:49:40;6.68;;;5.97;;
40623;SDS011;26325;48.594;11.650;2022-12-07T13:00:42;13.57;;;12.00;;
40623;SDS011;26325;48.594;11.650;2022-12-07T13:03:29;14.10;;;12.57;;
40623;SDS011;26325;48.594;11.650;2022-12-07T13:08:44;7.18;;;6.47;;
40623;SDS011;26325;48.594;11.650;2022-12-07T13:11:20;9.15;;;6.75;;
40623;SDS011;26325;48.594;11.650;2022-12-07T13:17:00;8.25;;;6.80;;
40623;SDS011;26325;48.594;11.650;2022-12-07T13:25:05;7.30;;;6.60;;
40623;SDS011;26325;48.594;11.650;2022-12-07T13:27:40;7.80;;;6.65;;
40623;SDS011;26325;48.594;11.650;2022-12-07T13:30:20;7.68;;;6.65;;
40623;SDS011;26325;48.594;11.650;2022-12-07T13:32:54;7.50;;;6.70;;
40623;SDS011;26325;48.594;11.650;2022-12-07T13:37:57;8.27;;;7.07;;
40623;SDS011;26325;48.594;11.650;2022-12-07T13:40:23;8.15;;;7.18;;
40623;SDS011;26325;48.594;11.650;2022-12-07T13:42:57;8.55;;;6.63;;
40623;SDS011;26325;48.594;11.650;2022-12-07T13:45:33;7.70;;;6.90;;
40623;SDS011;26325;48.594;11.650;2022-12-07T13:48:45;7.90;;;6.60;;
40623;SDS011;26325;48.594;11.650;2022-12-07T13:51:34;8.05;;;6.95;;
40623;SDS011;26325;48.594;11.650;2022-12-07T13:54:09;7.85;;;6.20;;
40623;SDS011;26325;48.594;11.650;2022-12-07T13:56:36;8.98;;;6.90;;
40623;SDS011;26325;48.594;11.650;2022-12-07T13:59:07;8.45;;;7.15;;
40623;SDS011;26325;48.594;11.650;2022-12-07T14:01:41;9.93;;;7.32;;
40623;SDS011;26325;48.594;11.650;2022-12-07T14:06:59;7.63;;;6.70;;
40623;SDS011;26325;48.594;11.650;2022-12-07T14:09:28;8.50;;;6.80;;
40623;SDS011;26325;48.594;11.650;2022-12-07T14:11:56;8.02;;;6.72;;
40623;SDS011;26325;48.594;11.650;2022-12-07T14:14:27;7.60;;;6.40;;
40623;SDS011;26325;48.594;11.650;2022-12-07T14:17:16;9.00;;;6.72;;
40623;SDS011;26325;48.594;11.650;2022-12-07T14:25:01;8.45;;;7.18;;
40623;SDS011;26325;48.594;11.650;2022-12-07T14:27:33;8.77;;;6.88;;
40623;SDS011;26325;48.594;11.650;2022-12-07T14:30:00;9.23;;;7.10;;
40623;SDS011;26325;48.594;11.650;2022-12-07T14:32:28;8.02;;;6.95;;
40623;SDS011;26325;48.594;11.650;2022-12-07T14:37:24;9.30;;;7.28;;
40623;SDS011;26325;48.594;11.650;2022-12-07T14:39:50;8.60;;;7.22;;
40623;SDS011;26325;48.594;11.650;2022-12-07T14:42:16;10.10;;;7.30;;
40623;SDS011;26325;48.594;11.650;2022-12-07T14:44:42;8.50;;;6.97;;
40623;SDS011;26325;48.594;11.650;2022-12-07T14:47:10;9.18;;;7.32;;
40623;SDS011;26325;48.594;11.650;2022-12-07T14:49:35;8.93;;;7.05;;
40623;SDS011;26325;48.594;11.650;2022-12-07T14:52:01;8.48;;;7.07;;
40623;SDS011;26325;48.594;11.650;2022-12-07T14:54:27;9.10;;;7.38;;
40623;SDS011;26325;48.594;11.650;2022-12-07T14:56:56;7.82;;;7.03;;
40623;SDS011;26325;48.594;11.650;2022-12-07T14:59:22;8.10;;;6.75;;
40623;SDS011;26325;48.594;11.650;2022-12-07T15:01:47;8.23;;;7.13;;
40623;SDS011;26325;48.594;11.650;2022-12-07T15:06:39;8.68;;;7.45;;
40623;SDS011;26325;48.594;11.650;2022-12-07T15:09:05;8.65;;;6.85;;
40623;SDS011;26325;48.594;11.650;2022-12-07T15:11:31;7.35;;;6.63;;
40623;SDS011;26325;48.594;11.650;2022-12-07T15:14:01;9.23;;;7.25;;
40623;SDS011;26325;48.594;11.650;2022-12-07T15:16:40;7.85;;;6.47;;
40623;SDS011;26325;48.594;11.650;2022-12-07T15:19:18;9.07;;;7.03;;
40623;SDS011;26325;48.594;11.650;2022-12-07T15:21:50;7.03;;;6.32;;
40623;SDS011;26325;48.594;11.650;2022-12-07T15:24:16;7.72;;;6.85;;
40623;SDS011;26325;48.594;11.650;2022-12-07T15:26:42;7.53;;;6.72;;
40623;SDS011;26325;48.594;11.650;2022-12-07T15:29:10;9.23;;;7.18;;
40623;SDS011;26325;48.594;11.650;2022-12-07T15:31:36;9.00;;;7.20;;
40623;SDS011;26325;48.594;11.650;2022-12-07T15:34:03;9.07;;;6.78;;
40623;SDS011;26325;48.594;11.650;2022-12-07T15:36:31;7.78;;;6.93;;
40623;SDS011;26325;48.594;11.650;2022-12-07T15:38:58;9.82;;;7.13;;
40623;SDS011;26325;48.594;11.650;2022-12-07T15:41:24;9.23;;;6.95;;
40623;SDS011;26325;48.594;11.650;2022-12-07T15:43:49;6.63;;;5.95;;
40623;SDS011;26325;48.594;11.650;2022-12-07T15:46:38;7.10;;;6.30;;
40623;SDS011;26325;48.594;11.650;2022-12-07T15:49:11;7.03;;;6.25;;
40623;SDS011;26325;48.594;11.650;2022-12-07T15:51:41;9.65;;;6.45;;
40623;SDS011;26325;48.594;11.650;2022-12-07T15:54:16;8.98;;;6.63;;
40623;SDS011;26325;48.594;11.650;2022-12-07T15:56:45;7.65;;;6.07;;
40623;SDS011;26325;48.594;11.650;2022-12-07T15:59:11;7.00;;;6.00;;
40623;SDS011;26325;48.594;11.650;2022-12-07T16:01:36;7.15;;;5.78;;
40623;SDS011;26325;48.594;11.650;2022-12-07T16:04:02;7.28;;;6.18;;
40623;SDS011;26325;48.594;11.650;2022-12-07T16:06:27;6.35;;;5.72;;
40623;SDS011;26325;48.594;11.650;2022-12-07T16:08:53;7.57;;;6.50;;
40623;SDS011;26325;48.594;11.650;2022-12-07T16:11:19;6.85;;;5.97;;
40623;SDS011;26325;48.594;11.650;2022-12-07T16:13:45;7.00;;;6.30;;
40623;SDS011;26325;48.594;11.650;2022-12-07T16:16:13;7.20;;;6.47;;
40623;SDS011;26325;48.594;11.650;2022-12-07T16:18:42;6.22;;;5.63;;
40623;SDS011;26325;48.594;11.650;2022-12-07T16:21:09;6.75;;;5.90;;
40623;SDS011;26325;48.594;11.650;2022-12-07T16:23:34;7.68;;;6.10;;
40623;SDS011;26325;48.594;11.650;2022-12-07T16:26:21;7.00;;;6.28;;
40623;SDS011;26325;48.594;11.650;2022-12-07T16:28:51;7.05;;;6.18;;
40623;SDS011;26325;48.594;11.650;2022-12-07T16:31:20;6.90;;;5.60;;
40623;SDS011;26325;48.594;11.650;2022-12-07T16:33:49;7.00;;;6.05;;
40623;SDS011;26325;48.594;11.650;2022-12-07T16:36:15;7.75;;;6.07;;
40623;SDS011;26325;48.594;11.650;2022-12-07T16:38:42;6.43;;;5.68;;
40623;SDS011;26325;48.594;11.650;2022-12-07T16:41:08;6.80;;;6.10;;
40623;SDS011;26325;48.594;11.650;2022-12-07T16:43:34;7.13;;;5.95;;
40623;SDS011;26325;48.594;11.650;2022-12-07T16:46:03;7.50;;;6.70;;
40623;SDS011;26325;48.594;11.650;2022-12-07T16:48:29;11.43;;;7.95;;
40623;SDS011;26325;48.594;11.650;2022-12-07T16:50:55;8.85;;;7.40;;
40623;SDS011;26325;48.594;11.650;2022-12-07T16:53:24;7.22;;;6.45;;
40623;SDS011;26325;48.594;11.650;2022-12-07T16:55:50;9.32;;;6.85;;
40623;SDS011;26325;48.594;11.650;2022-12-07T16:58:17;7.57;;;6.75;;
40623;SDS011;26325;48.594;11.650;2022-12-07T17:00:45;8.38;;;6.68;;
40623;SDS011;26325;48.594;11.650;2022-12-07T17:03:11;8.52;;;6.72;;
40623;SDS011;26325;48.594;11.650;2022-12-07T17:05:42;7.38;;;6.57;;
40623;SDS011;26325;48.594;11.650;2022-12-07T17:08:09;7.95;;;6.57;;
40623;SDS011;26325;48.594;11.650;2022-12-07T17:10:37;7.93;;;7.03;;
40623;SDS011;26325;48.594;11.650;2022-12-07T17:13:05;7.93;;;6.90;;
40623;SDS011;26325;48.594;11.650;2022-12-07T17:16:00;8.27;;;7.22;;
40623;SDS011;26325;48.594;11.650;2022-12-07T17:18:29;10.15;;;9.10;;
40623;SDS011;26325;48.594;11.650;2022-12-07T17:21:02;9.98;;;7.53;;
40623;SDS011;26325;48.594;11.650;2022-12-07T17:23:31;8.52;;;7.32;;
40623;SDS011;26325;48.594;11.650;2022-12-07T17:26:04;8.15;;;6.88;;
40623;SDS011;26325;48.594;11.650;2022-12-07T17:28:31;11.50;;;8.57;;
40623;SDS011;26325;48.594;11.650;2022-12-07T17:31:03;11.25;;;9.77;;